Time;durP1;ratioP1;P1;durP2;ratioP2;P2;SDS_P1;SDS_P2;PMS_P1;PMS_P2;Temp;Humidity;BMP_temperature;BMP_pressure;BME280_temperature;BME280_humidity;BME280_pressure;Samples;Min_cycle;Max_cycle;Signal;HPM_P1;HPM_P2
2021/07/01 04:16:55;;;;;;;3.05;1.45;;;;;;;13.52;95.06;98717.22;5294475;23;20046;-71
2021/07/01 04:19:20;;;;;;;1.45;1.25;;;;;;;13.39;95.22;98723.69;4973615;28;20038;-71
2021/07/01 04:21:46;;;;;;;3.58;1.17;;;;;;;13.62;95.11;98721.25;4973314;28;20027;-71
2021/07/01 04:24:11;;;;;;;3.00;1.00;;;;;;;13.46;94.45;98727.84;4973386;28;20057;-71
2021/07/01 04:26:37;;;;;;;2.33;1.00;;;;;;;13.48;96.16;98725.19;4961105;28;20053;-71
2021/07/01 04:29:03;;;;;;;0.95;0.93;;;;;;;13.57;95.26;98725.75;4954209;28;20031;-71
2021/07/01 04:31:29;;;;;;;1.20;1.15;;;;;;;13.51;94.92;98731.16;4953878;28;20047;-71
2021/07/01 04:33:54;;;;;;;2.53;1.25;;;;;;;13.70;95.10;98730.59;4953784;28;20035;-71
2021/07/01 04:36:20;;;;;;;0.90;0.90;;;;;;;13.57;93.79;98730.09;4959895;28;20034;-71
2021/07/01 04:38:45;;;;;;;1.23;1.17;;;;;;;13.59;94.80;98734.38;4960245;28;20038;-72
2021/07/01 04:41:11;;;;;;;8.57;1.42;;;;;;;13.70;94.87;98726.22;4960276;28;20172;-71
2021/07/01 04:43:36;;;;;;;1.13;1.08;;;;;;;13.60;95.26;98720.47;4959113;28;20023;-71
2021/07/01 04:46:02;;;;;;;1.17;1.08;;;;;;;13.71;93.40;98721.88;4959864;28;20038;-71
2021/07/01 04:48:27;;;;;;;2.55;1.23;;;;;;;13.77;93.91;98721.66;4959975;28;20415;-71
2021/07/01 04:50:52;;;;;;;2.30;1.10;;;;;;;13.77;92.24;98716.47;4960296;28;20027;-71
2021/07/01 04:53:18;;;;;;;1.48;1.20;;;;;;;13.81;92.43;98723.28;4960059;28;20027;-71
2021/07/01 04:55:43;;;;;;;1.05;1.02;;;;;;;13.82;93.04;98724.97;4959998;28;20027;-71
2021/07/01 04:58:08;;;;;;;1.20;1.10;;;;;;;13.86;92.61;98727.44;4959962;28;20074;-71
2021/07/01 05:00:35;;;;;;;1.40;1.10;;;;;;;13.82;93.12;98724.97;4958842;28;20031;-71
2021/07/01 05:03:01;;;;;;;3.40;1.00;;;;;;;13.81;93.78;98724.13;4960124;28;20122;-71
2021/07/01 05:05:27;;;;;;;1.35;1.25;;;;;;;13.79;93.80;98725.94;4959891;28;20118;-71
2021/07/01 05:07:53;;;;;;;1.33;1.10;;;;;;;13.69;93.31;98723.69;4958673;28;20122;-71
2021/07/01 05:10:18;;;;;;;1.95;1.00;;;;;;;13.70;93.40;98731.44;4958833;28;20551;-71
2021/07/01 05:12:44;;;;;;;1.50;1.00;;;;;;;13.78;94.83;98726.84;4960489;28;20044;-71
2021/07/01 05:15:10;;;;;;;4.93;1.10;;;;;;;13.79;93.35;98730.31;4959718;28;20031;-71
2021/07/01 05:17:35;;;;;;;1.15;1.15;;;;;;;13.84;94.69;98733.63;4959617;28;20081;-71
2021/07/01 05:20:01;;;;;;;1.85;0.90;;;;;;;13.98;94.30;98734.03;4960139;28;20027;-71
2021/07/01 05:22:26;;;;;;;0.98;0.93;;;;;;;14.06;92.44;98732.00;4959826;28;20031;-71
2021/07/01 05:24:52;;;;;;;1.25;1.15;;;;;;;14.02;93.20;98727.81;4959943;28;20019;-71
2021/07/01 05:27:17;;;;;;;2.42;1.05;;;;;;;14.05;93.61;98738.13;4959571;28;20102;-71
2021/07/01 05:29:42;;;;;;;1.75;1.27;;;;;;;13.97;93.93;98729.69;4959826;28;20062;-71
2021/07/01 05:32:08;;;;;;;5.25;1.00;;;;;;;14.02;94.98;98738.25;4959599;28;20023;-71
2021/07/01 05:34:33;;;;;;;2.03;1.00;;;;;;;14.15;92.49;98728.25;4959794;28;20119;-71
2021/07/01 05:36:58;;;;;;;1.83;1.13;;;;;;;14.27;94.31;98734.81;4959609;28;20054;-71
2021/07/01 05:39:23;;;;;;;2.47;1.15;;;;;;;14.04;95.66;98735.56;4959795;28;20054;-73
2021/07/01 05:41:49;;;;;;;1.42;1.17;;;;;;;14.04;93.20;98733.81;4959704;28;20023;-71
2021/07/01 05:44:14;;;;;;;3.85;1.10;;;;;;;14.28;93.74;98734.75;4959553;28;20031;-71
2021/07/01 05:46:40;;;;;;;4.65;1.05;;;;;;;14.21;91.50;98735.00;4956959;28;20020;-71
2021/07/01 05:49:05;;;;;;;8.43;1.30;;;;;;;14.17;92.64;98730.78;4956626;28;20027;-71
2021/07/01 05:51:33;;;;;;;1.92;1.15;;;;;;;14.05;94.26;98745.94;4956567;28;20031;-71
2021/07/01 05:56:26;;;;;;;4.50;1.38;;;;;;;13.77;94.72;98742.50;4956350;28;20038;-71
2021/07/01 05:58:51;;;;;;;2.65;1.20;;;;;;;13.77;96.05;98752.91;4956389;28;20035;-71
2021/07/01 06:01:16;;;;;;;1.05;1.00;;;;;;;13.92;94.64;98736.81;4956377;28;20384;-71
2021/07/01 06:03:42;;;;;;;1.40;1.30;;;;;;;14.03;94.91;98745.16;4956348;28;20015;-71
2021/07/01 06:06:11;;;;;;;1.48;1.20;;;;;;;13.91;94.49;98745.53;4956168;28;20035;-71
2021/07/01 06:08:36;;;;;;;1.73;1.40;;;;;;;14.15;94.78;98749.94;4956317;28;20416;-71
2021/07/01 06:11:06;;;;;;;2.92;1.30;;;;;;;14.21;94.41;98751.47;4956333;28;20115;-71
2021/07/01 06:13:36;;;;;;;1.50;1.40;;;;;;;14.45;92.92;98762.84;4908397;28;20527;-71
2021/07/01 06:16:02;;;;;;;3.20;1.40;;;;;;;14.58;91.79;98758.97;4955987;28;20039;-71
2021/07/01 06:18:28;;;;;;;1.90;1.25;;;;;;;14.67;93.02;98764.78;4956146;28;20502;-71
2021/07/01 06:20:53;;;;;;;1.40;1.30;;;;;;;14.69;92.35;98757.72;4956167;28;20106;-71
2021/07/01 06:23:19;;;;;;;45.72;27.10;;;;;;;14.49;92.73;98764.47;4955950;28;20016;-71
2021/07/01 06:25:49;;;;;;;2.28;1.40;;;;;;;14.26;93.37;98766.97;4955930;28;20027;-71
2021/07/01 06:28:15;;;;;;;1.73;1.20;;;;;;;14.18;94.26;98763.78;4955893;28;20034;-71
2021/07/01 06:30:43;;;;;;;1.90;1.40;;;;;;;14.08;94.38;98764.09;4955888;28;20480;-71
2021/07/01 06:33:11;;;;;;;1.00;0.90;;;;;;;13.92;95.59;98762.84;4940851;28;20046;-71
2021/07/01 06:35:37;;;;;;;2.97;1.20;;;;;;;14.04;93.89;98765.09;4955728;28;20031;-71
2021/07/01 06:38:09;;;;;;;1.33;1.02;;;;;;;14.11;95.97;98765.72;4955692;28;20031;-71
2021/07/01 06:40:35;;;;;;;1.67;1.58;;;;;;;14.05;96.79;98761.56;4954353;28;20078;-71
2021/07/01 06:43:01;;;;;;;1.48;1.38;;;;;;;14.27;96.84;98766.09;4955755;28;20026;-71
2021/07/01 06:45:27;;;;;;;4.18;1.45;;;;;;;14.23;96.35;98767.94;4955424;28;20049;-71
2021/07/01 06:47:57;;;;;;;1.55;1.40;;;;;;;14.11;96.55;98769.19;4954303;28;20472;-71
2021/07/01 06:50:28;;;;;;;1.30;1.20;;;;;;;14.25;95.13;98767.88;4955514;28;20093;-71
2021/07/01 06:52:55;;;;;;;3.78;1.50;;;;;;;14.16;95.11;98774.25;4955540;28;20174;-71
2021/07/01 06:55:21;;;;;;;2.22;1.13;;;;;;;14.23;95.01;98772.31;4955281;28;20476;-71
2021/07/01 06:57:46;;;;;;;1.25;1.15;;;;;;;14.00;95.71;98780.84;4955094;28;20030;-73
2021/07/01 07:00:14;;;;;;;2.03;1.50;;;;;;;14.14;96.53;98779.50;4955441;28;20027;-71
2021/07/01 07:02:40;;;;;;;5.78;1.20;;;;;;;13.90;96.65;98782.91;4955377;28;20047;-71
2021/07/01 07:05:08;;;;;;;1.60;1.50;;;;;;;13.86;96.77;98781.28;4955231;28;20370;-71
2021/07/01 07:07:34;;;;;;;6.47;1.67;;;;;;;13.98;97.44;98773.09;4954961;28;20032;-71
2021/07/01 07:10:04;;;;;;;3.35;1.70;;;;;;;14.11;96.78;98774.38;4955274;28;20028;-71
2021/07/01 07:12:30;;;;;;;1.35;1.25;;;;;;;14.42;96.52;98772.56;4948174;28;20023;-71
2021/07/01 07:14:56;;;;;;;1.50;1.40;;;;;;;14.55;95.87;98769.50;4955759;28;20035;-71
2021/07/01 07:17:27;;;;;;;4.75;1.50;;;;;;;14.54;96.32;98773.00;4954735;28;20515;-71
2021/07/01 07:19:55;;;;;;;3.72;1.27;;;;;;;14.70;94.04;98777.69;4961131;28;20027;-71
2021/07/01 07:22:21;;;;;;;2.50;1.10;;;;;;;14.71;93.22;98780.25;4938650;29;20362;-71
2021/07/01 07:24:51;;;;;;;1.27;1.00;;;;;;;14.62;92.95;98776.19;4950426;28;20022;-71
2021/07/01 07:27:20;;;;;;;1.17;1.10;;;;;;;14.75;94.09;98775.78;4943639;29;20121;-71
2021/07/01 07:29:45;;;;;;;2.25;1.30;;;;;;;14.88;93.67;98780.50;4962107;28;20022;-71
2021/07/01 07:32:14;;;;;;;3.38;1.33;;;;;;;14.83;94.02;98779.81;4957081;28;20118;-71
2021/07/01 07:34:40;;;;;;;0.95;0.95;;;;;;;15.06;93.68;98781.59;4938561;28;20027;-71
2021/07/01 07:37:06;;;;;;;37.33;20.33;;;;;;;15.19;88.46;98781.19;4947611;29;20437;-71
2021/07/01 07:39:32;;;;;;;10.23;6.78;;;;;;;15.30;90.04;98789.47;4945308;29;20031;-72
2021/07/01 07:41:59;;;;;;;1.67;1.33;;;;;;;15.25;90.18;98780.94;4940681;29;20023;-71
2021/07/01 07:44:25;;;;;;;5.25;1.67;;;;;;;15.57;89.54;98783.22;4952296;29;20023;-71
2021/07/01 07:46:51;;;;;;;1.70;1.02;;;;;;;15.45;89.06;98786.28;4949549;28;20039;-71
2021/07/01 07:49:18;;;;;;;1.85;1.38;;;;;;;15.83;88.77;98786.59;4943405;29;20026;-71
2021/07/01 07:51:49;;;;;;;1.35;1.10;;;;;;;15.99;85.08;98777.22;4941577;29;20513;-71
2021/07/01 07:54:21;;;;;;;4.07;1.25;;;;;;;15.92;85.39;98783.63;4948826;29;20031;-71
2021/07/01 07:56:50;;;;;;;2.58;1.40;;;;;;;15.91;84.37;98779.31;4937505;29;20466;-71
2021/07/01 07:59:20;;;;;;;3.53;1.50;;;;;;;15.72;81.64;98783.56;4944286;28;20019;-71
2021/07/01 08:01:48;;;;;;;4.05;1.70;;;;;;;15.56;82.50;98786.72;4945640;29;20035;-71
2021/07/01 08:04:16;;;;;;;3.95;1.77;;;;;;;15.50;83.79;98786.94;4953725;28;20105;-70
2021/07/01 08:06:43;;;;;;;1.63;1.52;;;;;;;15.48;83.02;98775.72;4953706;29;20050;-71
2021/07/01 08:09:12;;;;;;;1.73;1.63;;;;;;;15.92;81.94;98775.78;4952193;28;20054;-71
2021/07/01 08:11:41;;;;;;;2.35;1.50;;;;;;;16.25;81.42;98780.56;4952054;28;20023;-71
2021/07/01 08:14:06;;;;;;;1.73;1.60;;;;;;;16.18;79.54;98772.97;4951278;28;20297;-71
2021/07/01 08:16:32;;;;;;;7.57;5.22;;;;;;;16.28;78.72;98775.19;4951792;28;20035;-71
2021/07/01 08:18:59;;;;;;;5.07;2.70;;;;;;;16.11;80.94;98779.38;4927324;28;20130;-71
2021/07/01 08:21:25;;;;;;;5.05;2.15;;;;;;;16.25;80.58;98772.75;4960162;28;20058;-71
2021/07/01 08:23:50;;;;;;;1.75;1.65;;;;;;;16.24;80.45;98773.63;4953708;28;20054;-71
2021/07/01 08:26:17;;;;;;;4.32;1.60;;;;;;;16.20;80.01;98775.53;4952558;28;20438;-73
2021/07/01 08:28:42;;;;;;;3.25;1.90;;;;;;;16.22;80.53;98776.31;4953847;29;20019;-71
2021/07/01 08:31:08;;;;;;;3.80;1.80;;;;;;;16.15;80.56;98770.50;4953977;29;20023;-71
2021/07/01 08:33:40;;;;;;;4.30;2.85;;;;;;;15.91;83.09;98768.88;4953736;28;20055;-71
2021/07/01 08:36:11;;;;;;;3.63;2.38;;;;;;;15.84;82.00;98773.47;4953793;29;20035;-71
2021/07/01 08:38:37;;;;;;;2.00;1.90;;;;;;;15.70;82.79;98772.31;4953785;29;20089;-71
2021/07/01 08:41:26;;;;;;;5.00;1.58;;;;;;;15.56;83.15;98770.19;4953804;28;20038;-71
2021/07/01 08:43:56;;;;;;;2.17;1.60;;;;;;;15.71;83.85;98779.22;4953794;28;20097;-71
2021/07/01 08:46:41;;;;;;;;;;;;;;;15.51;83.92;98780.81;4954002;29;20544;-71
2021/07/01 08:49:09;;;;;;;5.55;2.15;;;;;;;15.44;83.82;98776.75;4953114;29;20008;-71
2021/07/01 08:51:35;;;;;;;2.75;2.08;;;;;;;15.67;83.31;98787.19;4952454;29;20019;-71
2021/07/01 08:54:29;;;;;;;2.00;1.75;;;;;;;15.74;82.83;98789.56;4953700;28;20035;-71
2021/07/01 08:56:56;;;;;;;2.47;1.67;;;;;;;15.99;83.81;98774.63;4953520;28;20030;-71
2021/07/01 08:59:25;;;;;;;2.63;2.13;;;;;;;16.13;82.36;98777.53;4953613;28;20038;-72
2021/07/01 09:02:02;;;;;;;2.20;2.00;;;;;;;16.55;80.25;98789.75;4953738;28;20500;-72
2021/07/01 09:04:37;;;;;;;2.42;1.83;;;;;;;16.71;78.02;98784.72;4953575;28;20028;-71
2021/07/01 09:07:04;;;;;;;4.85;2.70;;;;;;;16.82;77.67;98794.75;4953534;28;20480;-71
2021/07/01 09:09:39;;;;;;;8.23;5.05;;;;;;;16.62;77.09;98793.81;4953703;29;20031;-71
2021/07/01 09:12:08;;;;;;;2.25;1.80;;;;;;;16.57;76.91;98803.59;4953536;29;20460;-71
2021/07/01 09:14:36;;;;;;;2.70;2.05;;;;;;;16.28;77.69;98785.66;4953447;28;20032;-71
2021/07/01 09:17:10;;;;;;;1.77;1.67;;;;;;;16.23;78.00;98791.06;4953283;28;20122;-71
2021/07/01 09:19:40;;;;;;;2.50;1.80;;;;;;;16.21;77.29;98789.47;4953614;28;20085;-71
2021/07/01 09:22:11;;;;;;;3.42;2.33;;;;;;;16.36;79.08;98799.28;4954912;28;20015;-71
2021/07/01 09:24:37;;;;;;;2.60;1.80;;;;;;;16.40;77.90;98795.63;4956954;29;20552;-71
2021/07/01 09:27:09;;;;;;;2.92;2.00;;;;;;;16.24;77.47;98795.38;4956898;29;20027;-71
2021/07/01 09:29:36;;;;;;;1.90;1.80;;;;;;;16.17;81.54;98802.63;4957003;29;20034;-72
2021/07/01 09:32:02;;;;;;;2.50;2.17;;;;;;;16.17;82.30;98800.03;4957055;28;20027;-71
2021/07/01 09:34:32;;;;;;;9.60;1.83;;;;;;;16.28;78.47;98802.19;4956809;28;20421;-71
2021/07/01 09:37:01;;;;;;;2.67;1.92;;;;;;;16.19;81.00;98803.41;4956803;28;20054;-71
2021/07/01 09:39:27;;;;;;;6.68;5.07;;;;;;;16.34;80.02;98801.09;4956825;28;20038;-71
2021/07/01 09:42:00;;;;;;;5.50;2.00;;;;;;;16.09;79.79;98807.31;4956655;28;20023;-71
2021/07/01 09:44:25;;;;;;;2.17;1.55;;;;;;;16.42;78.47;98799.03;4956956;29;20038;-71
2021/07/01 09:46:51;;;;;;;2.28;1.88;;;;;;;16.36;79.63;98799.28;4956492;29;20396;-71
2021/07/01 09:49:20;;;;;;;1.85;1.75;;;;;;;16.05;79.91;98800.53;4956801;28;20338;-71
2021/07/01 09:51:53;;;;;;;6.30;1.80;;;;;;;15.99;79.80;98805.97;4956544;29;20146;-71
2021/07/01 09:54:22;;;;;;;2.53;1.90;;;;;;;15.86;81.64;98799.56;4956509;29;20027;-71
2021/07/01 09:56:52;;;;;;;2.37;2.03;;;;;;;15.86;81.34;98807.41;4956276;28;20118;-71
2021/07/01 09:59:29;;;;;;;2.05;1.95;;;;;;;16.06;80.54;98797.00;4956606;29;20110;-71
2021/07/01 10:02:11;;;;;;;3.45;2.25;;;;;;;16.10;79.62;98795.97;4956406;29;20131;-71
2021/07/01 10:04:37;;;;;;;9.95;2.72;;;;;;;16.29;79.61;98792.59;4956363;28;20499;-71
2021/07/01 10:07:09;;;;;;;4.85;2.10;;;;;;;17.12;77.22;98796.06;4956170;28;20032;-71
2021/07/01 10:09:34;;;;;;;2.38;1.88;;;;;;;17.66;72.61;98802.31;4956555;28;20035;-71
2021/07/01 10:12:00;;;;;;;22.15;16.30;;;;;;;18.20;71.09;98792.78;4956310;28;20369;-72
2021/07/01 10:14:37;;;;;;;5.03;3.00;;;;;;;18.38;70.31;98800.69;4956293;29;20028;-71
2021/07/01 10:17:08;;;;;;;1.77;1.60;;;;;;;17.82;71.04;98805.09;4955771;28;20114;-72
2021/07/01 10:19:34;;;;;;;4.95;2.30;;;;;;;18.35;70.45;98795.56;4956100;29;20110;-71
2021/07/01 10:22:05;;;;;;;4.15;1.90;;;;;;;18.73;71.49;98791.91;4956191;28;20585;-72
2021/07/01 10:24:32;;;;;;;2.55;1.73;;;;;;;19.11;67.89;98799.59;4955987;29;20028;-71
2021/07/01 10:26:59;;;;;;;3.60;2.50;;;;;;;17.84;71.38;98812.88;4955694;29;20484;-71
2021/07/01 10:29:36;;;;;;;1.88;1.77;;;;;;;18.59;70.70;98794.34;4956481;28;20023;-71
2021/07/01 10:32:06;;;;;;;4.72;1.90;;;;;;;17.86;70.30;98798.78;4955518;28;20027;-71
2021/07/01 10:34:46;;;;;;;2.30;2.10;;;;;;;17.53;71.30;98805.56;4955902;29;20445;-71
2021/07/01 10:37:13;;;;;;;3.67;1.90;;;;;;;17.16;76.01;98797.63;4955618;29;20027;-71
2021/07/01 10:39:40;;;;;;;8.27;2.55;;;;;;;16.22;77.13;98801.59;4955704;29;20027;-71
2021/07/01 10:42:05;;;;;;;3.97;2.33;;;;;;;16.27;78.04;98799.66;4955546;29;20033;-71
2021/07/01 10:44:31;;;;;;;5.95;2.78;;;;;;;15.80;79.88;98810.22;4955571;28;20023;-71
2021/07/01 10:46:57;;;;;;;9.80;3.42;;;;;;;15.59;85.40;98823.16;4955311;29;20035;-71
2021/07/01 10:49:36;;;;;;;8.50;3.45;;;;;;;14.73;88.46;98830.59;4955505;28;20031;-71
2021/07/01 10:52:04;;;;;;;4.80;3.63;;;;;;;14.62;92.00;98827.50;4955444;28;20020;-71
2021/07/01 10:54:29;;;;;;;6.45;4.30;;;;;;;14.59;93.17;98832.81;4955285;28;20031;-71
2021/07/01 10:57:05;;;;;;;5.82;4.57;;;;;;;14.74;95.16;98839.28;4955257;28;20035;-71
2021/07/01 10:59:51;;;;;;;6.30;4.32;;;;;;;14.89;95.35;98841.34;4955379;28;20063;-70
2021/07/01 11:02:31;;;;;;;5.18;4.13;;;;;;;14.85;94.39;98842.38;4954041;28;20023;-71
2021/07/01 11:05:06;;;;;;;;;;;;;;;14.68;93.01;98842.09;4953671;29;20034;-71
2021/07/01 11:07:43;;;;;;;8.00;5.72;;;;;;;14.61;92.29;98836.25;4953386;28;19915;-71
2021/07/01 11:10:09;;;;;;;7.30;2.90;;;;;;;14.59;93.13;98841.50;4953188;29;20031;-71
2021/07/01 11:12:46;;;;;;;3.53;2.90;;;;;;;14.59;92.26;98849.31;4953254;28;20489;-75
2021/07/01 11:15:12;;;;;;;2.70;2.50;;;;;;;14.48;92.63;98846.22;4953258;29;20054;-76
2021/07/01 11:17:43;;;;;;;3.45;2.38;;;;;;;14.64;92.59;98851.78;4954163;28;20366;-76
2021/07/01 11:20:26;;;;;;;3.97;3.00;;;;;;;14.76;93.53;98850.53;4954991;29;20058;-75
2021/07/01 11:22:54;;;;;;;2.88;2.67;;;;;;;14.94;93.97;98855.13;4953694;28;20510;-75
2021/07/01 11:25:35;;;;;;;8.13;6.05;;;;;;;15.01;91.65;98848.78;4954555;28;20083;-75
2021/07/01 11:28:23;;;;;;;2.78;2.33;;;;;;;14.92;91.48;98846.47;4940039;28;20086;-75
2021/07/01 11:30:58;;;;;;;2.40;2.13;;;;;;;15.13;90.95;98845.75;4946309;28;20074;-75
2021/07/01 11:33:23;;;;;;;5.05;2.42;;;;;;;15.46;89.34;98842.81;4939926;28;20141;-75
2021/07/01 11:35:51;;;;;;;3.35;2.63;;;;;;;15.65;89.26;98849.09;4942218;28;20035;-75
2021/07/01 11:38:28;;;;;;;3.50;2.35;;;;;;;15.73;87.97;98835.75;4940905;28;20031;-75
2021/07/01 11:40:55;;;;;;;3.55;2.78;;;;;;;15.87;87.41;98840.44;4946014;28;20050;-75
2021/07/01 11:43:21;;;;;;;3.83;2.58;;;;;;;16.31;87.40;98848.31;4941136;28;20548;-75
2021/07/01 11:45:49;;;;;;;4.28;2.50;;;;;;;16.13;84.45;98835.03;4943739;28;20043;-75
2021/07/01 11:48:15;;;;;;;5.15;2.58;;;;;;;15.76;86.74;98839.97;4943888;28;20031;-75
2021/07/01 11:50:40;;;;;;;4.68;2.63;;;;;;;15.73;87.30;98840.13;4939823;29;20082;-75
2021/07/01 11:53:06;;;;;;;3.28;2.50;;;;;;;15.88;87.31;98840.38;4945458;29;20049;-74
2021/07/01 11:55:31;;;;;;;3.00;2.65;;;;;;;15.88;87.70;98839.53;4944562;29;20039;-75
2021/07/01 11:57:57;;;;;;;4.25;2.55;;;;;;;16.12;87.07;98838.56;4944577;28;20042;-75
2021/07/01 12:00:24;;;;;;;2.30;2.08;;;;;;;15.89;86.23;98838.63;4945654;29;20053;-72
2021/07/01 12:02:50;;;;;;;2.85;1.90;;;;;;;16.02;85.38;98842.47;4952401;28;20054;-76
2021/07/01 12:05:16;;;;;;;6.70;2.67;;;;;;;16.06;86.46;98838.81;4945178;29;20039;-75
2021/07/01 12:07:43;;;;;;;5.50;1.90;;;;;;;16.38;85.74;98839.28;4943271;28;20424;-72
2021/07/01 12:10:09;;;;;;;2.20;2.00;;;;;;;16.60;84.41;98839.28;4945271;28;20023;-72
2021/07/01 12:12:35;;;;;;;2.90;2.70;;;;;;;16.80;82.96;98838.47;4943548;29;20740;-72
2021/07/01 12:15:14;;;;;;;4.55;3.60;;;;;;;16.67;81.49;98831.09;4944151;28;20063;-72
2021/07/01 12:18:00;;;;;;;;;;;;;;;16.86;81.61;98831.19;4945467;29;20035;-72
2021/07/01 12:20:28;;;;;;;4.38;2.05;;;;;;;17.18;81.71;98827.19;4946059;29;20016;-72
2021/07/01 12:22:54;;;;;;;4.28;2.53;;;;;;;17.58;78.85;98838.50;4944223;28;20358;-72
2021/07/01 12:25:25;;;;;;;2.90;2.15;;;;;;;17.93;76.76;98830.81;4944435;28;20031;-72
2021/07/01 12:28:07;;;;;;;2.20;2.00;;;;;;;18.46;76.74;98824.75;4944164;28;20456;-72
2021/07/01 12:30:57;;;;;;;2.35;2.17;;;;;;;17.96;76.26;98835.91;4945341;28;20118;-72
2021/07/01 12:33:36;;;;;;;4.45;2.22;;;;;;;18.34;77.75;98835.84;4944334;28;20019;-72
2021/07/01 12:36:10;;;;;;;26.95;18.40;;;;;;;18.97;73.70;98837.06;4944220;28;20027;-72
2021/07/01 12:38:38;;;;;;;2.67;2.28;;;;;;;18.42;70.19;98838.94;4943706;28;20492;-72
2021/07/01 12:41:06;;;;;;;6.07;2.20;;;;;;;18.05;71.41;98845.13;4944425;28;20027;-72
2021/07/01 12:43:46;;;;;;;3.65;2.70;;;;;;;17.99;70.29;98841.03;4943676;28;20027;-72
2021/07/01 12:46:12;;;;;;;5.00;2.40;;;;;;;18.11;69.21;98837.81;4944338;28;20497;-74
2021/07/01 12:48:40;;;;;;;2.78;2.55;;;;;;;18.19;70.25;98840.06;4944023;28;20081;-72
2021/07/01 12:51:43;;;;;;;3.15;2.85;;;;;;;17.90;70.67;98846.69;4943405;29;20036;-72
2021/07/01 12:54:37;;;;;;;4.25;3.40;;;;;;;17.78;70.55;98852.50;4943379;29;20039;-72
2021/07/01 12:57:05;;;;;;;4.07;2.58;;;;;;;17.78;69.72;98847.25;4945969;28;20046;-72
2021/07/01 12:59:32;;;;;;;5.68;3.20;;;;;;;17.51;69.90;98850.19;4948911;28;20445;-72
2021/07/01 13:02:05;;;;;;;7.00;3.58;;;;;;;17.42;71.07;98840.97;4948025;29;20027;-72
2021/07/01 13:04:32;;;;;;;2.60;2.40;;;;;;;17.52;70.46;98844.03;4948058;29;20031;-72
2021/07/01 13:06:59;;;;;;;3.70;2.97;;;;;;;17.39;74.79;98840.25;4944800;28;20062;-72
2021/07/01 13:09:34;;;;;;;3.40;2.63;;;;;;;17.68;68.75;98846.78;4948974;28;20489;-71
2021/07/01 13:12:03;;;;;;;3.10;2.65;;;;;;;17.61;67.46;98846.22;4947600;29;20035;-72
2021/07/01 13:14:31;;;;;;;3.20;2.90;;;;;;;17.87;66.97;98846.81;4942514;28;20512;-71
2021/07/01 13:17:02;;;;;;;4.32;2.60;;;;;;;18.13;67.46;98843.84;4943782;28;20038;-71
2021/07/01 13:19:28;;;;;;;4.20;2.92;;;;;;;18.52;66.47;98839.34;4948275;29;20035;-71
2021/07/01 13:21:55;;;;;;;3.35;2.72;;;;;;;18.48;65.91;98838.66;4948460;28;20046;-72
2021/07/01 13:24:22;;;;;;;4.00;2.95;;;;;;;18.41;66.93;98832.00;4942563;28;20086;-71
2021/07/01 13:26:48;;;;;;;4.95;2.80;;;;;;;18.14;66.47;98845.53;4944178;28;20031;-71
2021/07/01 13:29:34;;;;;;;7.30;3.22;;;;;;;18.61;65.37;98834.47;4942208;29;20035;-71
2021/07/01 13:32:07;;;;;;;2.80;2.60;;;;;;;18.70;64.95;98836.69;4948266;28;20405;-71
2021/07/01 13:34:33;;;;;;;5.03;3.97;;;;;;;19.02;63.50;98828.97;4948181;29;20035;-73
2021/07/01 13:37:20;;;;;;;5.35;3.97;;;;;;;19.08;64.30;98833.03;4942057;29;20404;-73
2021/07/01 13:39:46;;;;;;;6.80;3.17;;;;;;;19.15;65.85;98830.03;4942159;29;20392;-73
2021/07/01 13:42:30;;;;;;;5.93;2.97;;;;;;;19.34;65.22;98831.66;4946734;28;20023;-73
2021/07/01 13:45:05;;;;;;;4.82;3.00;;;;;;;19.54;63.01;98830.63;4948074;29;20082;-73
2021/07/01 13:47:39;;;;;;;3.42;2.70;;;;;;;18.96;63.82;98834.53;4948321;29;20036;-73
2021/07/01 13:50:04;;;;;;;3.30;3.00;;;;;;;18.27;63.65;98844.94;4942275;28;20114;-72
2021/07/01 13:52:31;;;;;;;5.43;3.30;;;;;;;18.09;68.57;98847.53;4947851;29;20034;-73
2021/07/01 13:54:56;;;;;;;5.63;3.08;;;;;;;17.61;68.74;98850.63;4941913;28;20039;-73
2021/07/01 13:57:27;;;;;;;4.55;3.47;;;;;;;17.40;69.17;98847.19;4942072;28;20043;-73
2021/07/01 13:59:59;;;;;;;11.98;3.10;;;;;;;17.26;68.33;98852.19;4941894;29;20034;-73
2021/07/01 14:02:26;;;;;;;5.07;3.47;;;;;;;16.97;72.35;98843.84;4947767;29;20031;-73
2021/07/01 14:04:53;;;;;;;7.93;3.85;;;;;;;17.24;70.39;98846.16;4947811;28;20031;-73
2021/07/01 14:07:29;;;;;;;4.88;3.20;;;;;;;17.03;71.33;98851.44;4946163;28;20067;-73
2021/07/01 14:10:09;;;;;;;3.85;3.30;;;;;;;17.18;70.59;98853.38;4941949;28;20023;-73
2021/07/01 14:12:35;;;;;;;;;;;;;;;16.96;71.03;98857.81;4945827;29;20121;-73
2021/07/01 14:15:01;;;;;;;5.88;3.55;;;;;;;16.57;73.20;98861.16;4947442;29;19923;-73
2021/07/01 14:17:28;;;;;;;5.97;4.25;;;;;;;16.69;74.20;98860.66;4941253;28;20556;-73
2021/07/01 14:19:54;;;;;;;4.93;3.50;;;;;;;16.68;75.77;98869.44;4947481;29;20026;-73
2021/07/01 14:22:38;;;;;;;4.45;3.58;;;;;;;16.15;75.49;98875.06;4946168;28;20650;-73
2021/07/01 14:25:18;;;;;;;5.35;3.28;;;;;;;15.89;75.27;98877.81;4947472;29;20106;-73
2021/07/01 14:27:44;;;;;;;7.38;3.20;;;;;;;15.78;77.85;98874.75;4945383;28;20031;-73
2021/07/01 14:30:10;;;;;;;4.95;2.83;;;;;;;15.85;76.63;98873.59;4946665;28;20033;-73
2021/07/01 14:32:38;;;;;;;4.47;3.30;;;;;;;16.03;76.22;98875.53;4946022;28;20078;-73
2021/07/01 14:35:25;;;;;;;3.65;3.25;;;;;;;15.77;76.20;98879.13;4945506;29;20043;-73
2021/07/01 14:38:02;;;;;;;4.43;2.95;;;;;;;15.71;76.82;98881.97;4945751;28;20035;-73
2021/07/01 14:40:27;;;;;;;6.28;3.28;;;;;;;15.64;77.59;98873.50;4946397;28;20023;-73
2021/07/01 14:43:01;;;;;;;3.67;2.92;;;;;;;15.91;75.40;98876.84;4946616;28;20038;-73
2021/07/01 14:45:27;;;;;;;9.05;3.65;;;;;;;15.99;77.31;98878.31;4946445;29;20039;-73
2021/07/01 14:47:52;;;;;;;3.25;2.90;;;;;;;16.14;75.31;98875.94;4946110;28;20591;-73
2021/07/01 14:50:19;;;;;;;5.78;3.22;;;;;;;16.25;75.58;98872.94;4944169;28;20037;-73
2021/07/01 14:52:45;;;;;;;4.65;3.30;;;;;;;16.52;74.04;98868.34;4944128;28;20033;-73
2021/07/01 14:55:19;;;;;;;6.38;3.20;;;;;;;16.84;72.28;98866.22;4946119;29;20027;-73
2021/07/01 14:58:02;;;;;;;5.13;2.85;;;;;;;16.92;73.60;98866.72;4946367;29;20027;-73
2021/07/01 15:00:28;;;;;;;3.33;2.70;;;;;;;17.17;72.16;98874.41;4945744;29;20501;-73
2021/07/01 15:02:57;;;;;;;4.32;2.90;;;;;;;17.08;71.94;98873.03;4946518;29;20118;-77
2021/07/01 15:05:26;;;;;;;4.57;3.05;;;;;;;17.06;72.86;98884.47;4941103;29;20125;-77
2021/07/01 15:07:58;;;;;;;;;;;;;;;17.00;72.76;98884.72;4942123;28;20034;-79
2021/07/01 15:10:30;;;;;;;4.13;2.97;;;;;;;17.00;72.49;98884.72;4940073;29;19918;-74
2021/07/01 15:12:58;;;;;;;5.00;3.08;;;;;;;17.12;71.86;98884.22;4940679;28;20051;-74
2021/07/01 15:15:24;;;;;;;3.95;3.15;;;;;;;16.83;72.94;98882.84;4940696;28;20479;-74
2021/07/01 15:17:51;;;;;;;3.15;2.85;;;;;;;16.77;72.04;98883.06;4944879;28;20042;-73
2021/07/01 15:20:16;;;;;;;4.10;2.92;;;;;;;16.73;72.99;98886.72;4945914;28;20749;-74
2021/07/01 15:22:42;;;;;;;9.27;7.20;;;;;;;16.69;73.14;98892.06;4941750;28;20058;-73
2021/07/01 15:25:08;;;;;;;5.07;3.13;;;;;;;16.74;74.11;98894.53;4945207;28;20241;-73
2021/07/01 15:27:34;;;;;;;7.10;3.38;;;;;;;16.81;74.89;98889.88;4945962;29;20126;-74
2021/07/01 15:29:59;;;;;;;6.22;3.17;;;;;;;16.91;74.44;98891.19;4942482;28;20106;-74
2021/07/01 15:32:25;;;;;;;6.63;3.45;;;;;;;17.17;73.40;98893.56;4940106;28;21032;-74
2021/07/01 15:34:54;;;;;;;3.28;2.92;;;;;;;17.63;71.29;98893.31;4940224;29;20035;-74
2021/07/01 15:37:21;;;;;;;6.38;3.10;;;;;;;17.78;70.42;98895.28;4939250;28;20031;-74
2021/07/01 15:39:46;;;;;;;8.05;3.03;;;;;;;17.79;69.35;98896.13;4940029;28;20090;-71
2021/07/01 15:42:14;;;;;;;9.35;2.70;;;;;;;17.61;69.62;98892.56;4939871;28;20026;-74
2021/07/01 15:44:41;;;;;;;4.38;2.95;;;;;;;17.52;71.31;98893.81;4945918;29;20034;-74
2021/07/01 15:47:09;;;;;;;5.30;2.83;;;;;;;17.32;70.63;98891.22;4940663;28;20057;-73
2021/07/01 15:49:35;;;;;;;3.95;3.13;;;;;;;17.23;72.55;98889.84;4945700;28;20496;-78
2021/07/01 15:52:00;;;;;;;11.63;8.27;;;;;;;16.99;72.17;98894.34;4939902;28;20117;-80
2021/07/01 15:54:25;;;;;;;4.40;3.00;;;;;;;16.85;72.67;98894.94;4945566;29;20038;-80
2021/07/01 15:56:51;;;;;;;3.17;2.83;;;;;;;16.79;71.79;98891.72;4941599;28;20059;-79
2021/07/01 15:59:23;;;;;;;4.75;3.10;;;;;;;16.81;73.31;98887.25;4939764;28;20106;-80
2021/07/01 16:01:54;;;;;;;4.15;3.00;;;;;;;16.68;72.18;98885.13;4939776;28;20042;-80